METAR Data
IDs: Format: Raw Decoded Include TAF

Data at: 1156 UTC 21 Oct 2018

KACT 211151Z 35007KT 10SM CLR 11/08 A3032 RMK AO2 SLP264 T01060078 10133 20106 53007
KACT 211051Z 34007KT 10SM CLR 11/08 A3030 RMK AO2 SLP258 T01060083
KACT 210951Z AUTO 34006KT 10SM CLR 11/08 A3030 RMK AO2 SLP257 T01060083
KACT 210851Z AUTO 34006KT 10SM CLR 11/09 A3030 RMK AO2 SLP256 T01110089 50000
KACT 210751Z AUTO 35005KT 10SM CLR 12/09 A3030 RMK AO2 SLP258 T01170094
KACT 210651Z AUTO 34006KT 10SM CLR 13/10 A3030 RMK AO2 SLP256 T01280100
KACT 210551Z AUTO 35006KT 10SM CLR 13/11 A3030 RMK AO2 SLP256 T01330106 10189 20133 402170133 50008
KACT 210451Z 35007KT 10SM CLR 14/11 A3030 RMK AO2 SLP257 T01440111
KACT 210351Z 36007KT 10SM CLR 14/12 A3029 RMK AO2 SLP254 T01440117
KACT 210251Z 01005KT 10SM CLR 15/12 A3027 RMK AO2 SLP248 T01500122 52020
KACT 210151Z 36006KT 10SM CLR 16/13 A3026 RMK AO2 SLP242 T01610128
KACT 210051Z 01008KT 10SM CLR 18/14 A3023 RMK AO2 SLP234 T01780144
KACT 202351Z 36007KT 10SM CLR 18/15 A3021 RMK AO2 SLP228 T01830150 10217 20178 53005
KACT 202251Z 36008KT 10SM CLR 21/15 A3020 RMK AO2 SLP222 T02060150
KACT 202151Z 35007KT 10SM CLR 22/14 A3020 RMK AO2 SLP222 T02170144
KACT 202103Z 03012KT 10SM SCT023 21/14 A3019 RMK AO2 T02060144
KACT 202051Z 02009KT 10SM BKN023 21/14 A3020 RMK AO2 SLP222 T02110144 55006
KACT 201951Z 36013KT 10SM OVC020 19/14 A3020 RMK AO2 SLP222 T01890139
KACT 201851Z 02010KT 10SM OVC021 18/14 A3021 RMK AO2 SLP225 T01830139
KACT 201751Z 36011KT 10SM OVC021 18/14 A3022 RMK AO2 SLP229 T01830144 10183 20156 58004
KACT 201651Z 02011KT 10SM OVC020 18/14 A3023 RMK AO2 SLP232 T01780139
KACT 201551Z 02009KT 10SM BKN013 OVC020 17/14 A3024 RMK AO2 SLP237 T01720144
KACT 201451Z 02008KT 10SM FEW011 BKN018 BKN025 17/15 A3023 RMK AO2 SLP233 T01720150 53020
KACT 201351Z 01008KT 7SM OVC009 16/14 A3020 RMK AO2 SLP224 T01610144
KACT 201300Z 01006KT 6SM BR BKN009 OVC015 16/15 A3018 RMK AO2 T01610150
KACT 201251Z 01004KT 7SM BKN011 OVC017 16/15 A3019 RMK AO2 SLP218 T01610150
KACT 201151Z 36007KT 6SM BR FEW006 OVC013 16/15 A3017 RMK AO2 SLP213 70141 T01560150 10161 20156 53009
KACT 201143Z 36007KT 6SM BR SCT006 OVC013 16/15 A3017 RMK AO2 T01560150
KACT 201051Z 35005KT 7SM BKN006 BKN013 OVC043 16/15 A3016 RMK AO2 CIG 004V009 SLP210 T01560150
KACT 201043Z AUTO 36004KT 8SM SCT008 BKN013 OVC025 16/15 A3016 RMK AO2 T01560150
KACT 200951Z AUTO 34004KT 9SM OVC022 16/14 A3015 RMK AO2 SLP205 T01560144
KACT 200938Z AUTO 34004KT 9SM BKN022 BKN038 OVC060 16/14 A3015 RMK AO2 T01560144
KACT 200910Z AUTO 34004KT 10SM SCT022 OVC060 16/14 A3014 RMK AO2 T01560144
KACT 200851Z AUTO 34004KT 10SM OVC022 16/14 A3014 RMK AO2 SLP204 T01560144 55003
KACT 200751Z AUTO 03004KT 10SM OVC018 16/14 A3014 RMK AO2 SLP201 T01560144
KACT 200651Z AUTO 35006KT 10SM OVC019 16/15 A3015 RMK AO2 SLP205 T01560150
KACT 200617Z AUTO 35004KT 7SM OVC015 16/15 A3015 RMK AO2 T01610150
KACT 200551Z AUTO 35003KT 8SM FEW005 OVC011 16/15 A3015 RMK AO2 SLP207 T01610150 10161 20156 401670144 58000
KACT 200548Z AUTO 35003KT 8SM FEW005 OVC011 16/15 A3015 RMK AO2
KACT 200504Z AUTO 35004KT 7SM OVC009 16/15 A3015 RMK AO2 CIG 006V012 T01610150
KACT 200451Z AUTO 35003KT 6SM BR OVC010 16/15 A3016 RMK AO2 CIG 008V012 SLP208 T01610150
KACT 200351Z 32003KT 8SM OVC005 16/15 A3015 RMK AO2 SLP207 T01610150
KACT 200251Z 00000KT 8SM OVC007 16/15 A3016 RMK AO2 SLP210 T01560150 51007
KACT 200151Z 00000KT 10SM OVC010 16/15 A3015 RMK AO2 SLP207 T01560150
KACT 200051Z 00000KT 10SM OVC010 16/15 A3015 RMK AO2 SLP207 T01560150
KACT 200042Z 00000KT 10SM OVC010 16/15 A3015 RMK AO2 T01560150